sensor_id;sensor_type;location;lat;lon;timestamp;temperature;humidity
50586;DHT22;36542;51.700;8.846;2023-02-01T00:00:04;3.60;99.90
50586;DHT22;36542;51.700;8.846;2023-02-01T00:02:30;3.60;99.90
50586;DHT22;36542;51.700;8.846;2023-02-01T00:04:55;3.60;99.90
50586;DHT22;36542;51.700;8.846;2023-02-01T00:07:21;3.50;99.90
50586;DHT22;36542;51.700;8.846;2023-02-01T00:09:46;3.50;99.90
50586;DHT22;36542;51.700;8.846;2023-02-01T00:12:11;3.50;99.90
50586;DHT22;36542;51.700;8.846;2023-02-01T00:14:37;3.50;99.90
50586;DHT22;36542;51.700;8.846;2023-02-01T00:17:05;3.50;99.90
50586;DHT22;36542;51.700;8.846;2023-02-01T00:19:32;3.60;99.90
50586;DHT22;36542;51.700;8.846;2023-02-01T00:21:58;3.60;99.90
50586;DHT22;36542;51.700;8.846;2023-02-01T00:24:23;3.60;99.90
50586;DHT22;36542;51.700;8.846;2023-02-01T00:26:48;3.60;99.90
50586;DHT22;36542;51.700;8.846;2023-02-01T00:29:16;3.60;99.90
50586;DHT22;36542;51.700;8.846;2023-02-01T00:31:43;3.60;99.90
50586;DHT22;36542;51.700;8.846;2023-02-01T00:34:13;3.70;99.90
50586;DHT22;36542;51.700;8.846;2023-02-01T00:36:40;3.70;99.90
50586;DHT22;36542;51.700;8.846;2023-02-01T00:39:06;3.70;99.90
50586;DHT22;36542;51.700;8.846;2023-02-01T00:41:31;3.70;99.90
50586;DHT22;36542;51.700;8.846;2023-02-01T00:43:57;3.70;99.90
50586;DHT22;36542;51.700;8.846;2023-02-01T00:46:22;3.70;99.90
50586;DHT22;36542;51.700;8.846;2023-02-01T00:48:48;3.70;99.90
50586;DHT22;36542;51.700;8.846;2023-02-01T00:51:17;3.70;99.90
50586;DHT22;36542;51.700;8.846;2023-02-01T00:53:43;3.70;99.90
50586;DHT22;36542;51.700;8.846;2023-02-01T00:56:09;3.80;99.90
50586;DHT22;36542;51.700;8.846;2023-02-01T00:58:35;3.80;99.90
50586;DHT22;36542;51.700;8.846;2023-02-01T01:01:07;3.80;99.90
50586;DHT22;36542;51.700;8.846;2023-02-01T01:03:35;3.80;99.90
50586;DHT22;36542;51.700;8.846;2023-02-01T01:06:04;3.80;99.90
50586;DHT22;36542;51.700;8.846;2023-02-01T01:08:30;3.90;99.90
50586;DHT22;36542;51.700;8.846;2023-02-01T01:10:56;3.90;99.90
50586;DHT22;36542;51.700;8.846;2023-02-01T01:13:21;3.90;99.90
50586;DHT22;36542;51.700;8.846;2023-02-01T01:15:47;3.90;99.90
50586;DHT22;36542;51.700;8.846;2023-02-01T01:18:12;3.90;99.90
50586;DHT22;36542;51.700;8.846;2023-02-01T01:20:39;3.80;99.90
50586;DHT22;36542;51.700;8.846;2023-02-01T01:23:06;3.80;99.90
50586;DHT22;36542;51.700;8.846;2023-02-01T01:25:32;3.80;99.90
50586;DHT22;36542;51.700;8.846;2023-02-01T01:28:02;3.80;99.90
50586;DHT22;36542;51.700;8.846;2023-02-01T01:30:27;3.80;99.90
50586;DHT22;36542;51.700;8.846;2023-02-01T01:32:53;3.80;99.90
50586;DHT22;36542;51.700;8.846;2023-02-01T01:35:18;3.80;99.90
50586;DHT22;36542;51.700;8.846;2023-02-01T01:37:44;3.80;99.90
50586;DHT22;36542;51.700;8.846;2023-02-01T01:40:10;3.90;99.90
50586;DHT22;36542;51.700;8.846;2023-02-01T01:42:40;3.90;99.90
50586;DHT22;36542;51.700;8.846;2023-02-01T01:45:28;4.00;99.90
50586;DHT22;36542;51.700;8.846;2023-02-01T01:47:59;4.00;99.90
50586;DHT22;36542;51.700;8.846;2023-02-01T01:50:48;4.00;99.90
50586;DHT22;36542;51.700;8.846;2023-02-01T01:53:20;4.00;99.90
50586;DHT22;36542;51.700;8.846;2023-02-01T01:55:47;4.00;99.90
50586;DHT22;36542;51.700;8.846;2023-02-01T01:58:19;4.00;99.90
50586;DHT22;36542;51.700;8.846;2023-02-01T02:00:47;4.00;99.90
50586;DHT22;36542;51.700;8.846;2023-02-01T02:03:18;4.00;99.90
50586;DHT22;36542;51.700;8.846;2023-02-01T02:05:45;4.10;99.90
50586;DHT22;36542;51.700;8.846;2023-02-01T02:08:11;4.10;99.90
50586;DHT22;36542;51.700;8.846;2023-02-01T02:10:37;4.20;99.90
50586;DHT22;36542;51.700;8.846;2023-02-01T02:13:22;4.10;99.90
50586;DHT22;36542;51.700;8.846;2023-02-01T02:16:04;4.10;99.90
50586;DHT22;36542;51.700;8.846;2023-02-01T02:21:23;4.20;99.90
50586;DHT22;36542;51.700;8.846;2023-02-01T02:24:02;4.20;99.90
50586;DHT22;36542;51.700;8.846;2023-02-01T02:26:50;4.20;99.90
50586;DHT22;36542;51.700;8.846;2023-02-01T02:32:32;4.20;99.90
50586;DHT22;36542;51.700;8.846;2023-02-01T02:35:30;4.20;99.90
50586;DHT22;36542;51.700;8.846;2023-02-01T02:38:50;4.30;99.90
50586;DHT22;36542;51.700;8.846;2023-02-01T02:41:13;4.30;99.90
50586;DHT22;36542;51.700;8.846;2023-02-01T02:44:00;4.30;99.90
50586;DHT22;36542;51.700;8.846;2023-02-01T02:46:49;4.30;99.90
50586;DHT22;36542;51.700;8.846;2023-02-01T02:53:17;4.20;99.90
50586;DHT22;36542;51.700;8.846;2023-02-01T02:55:55;4.30;99.90
50586;DHT22;36542;51.700;8.846;2023-02-01T02:58:40;4.30;99.90
50586;DHT22;36542;51.700;8.846;2023-02-01T03:01:25;4.30;99.90
50586;DHT22;36542;51.700;8.846;2023-02-01T03:04:10;4.30;99.90
50586;DHT22;36542;51.700;8.846;2023-02-01T03:06:42;4.30;99.90
50586;DHT22;36542;51.700;8.846;2023-02-01T03:09:12;4.30;99.90
50586;DHT22;36542;51.700;8.846;2023-02-01T03:11:40;4.30;99.90
50586;DHT22;36542;51.700;8.846;2023-02-01T03:14:27;4.40;99.90
50586;DHT22;36542;51.700;8.846;2023-02-01T03:16:58;4.40;99.90
50586;DHT22;36542;51.700;8.846;2023-02-01T03:19:35;4.40;99.90
50586;DHT22;36542;51.700;8.846;2023-02-01T03:22:12;4.40;99.90
50586;DHT22;36542;51.700;8.846;2023-02-01T03:24:41;4.30;99.90
50586;DHT22;36542;51.700;8.846;2023-02-01T03:27:15;4.40;99.90
50586;DHT22;36542;51.700;8.846;2023-02-01T03:30:05;4.30;99.90
50586;DHT22;36542;51.700;8.846;2023-02-01T03:32:32;4.30;99.90
50586;DHT22;36542;51.700;8.846;2023-02-01T03:35:23;4.30;99.90
50586;DHT22;36542;51.700;8.846;2023-02-01T03:37:52;4.30;99.90
50586;DHT22;36542;51.700;8.846;2023-02-01T03:40:19;4.30;99.90
50586;DHT22;36542;51.700;8.846;2023-02-01T03:42:49;4.30;99.90
50586;DHT22;36542;51.700;8.846;2023-02-01T03:45:41;4.30;99.90
50586;DHT22;36542;51.700;8.846;2023-02-01T03:48:09;4.30;99.90
50586;DHT22;36542;51.700;8.846;2023-02-01T03:50:38;4.30;99.90
50586;DHT22;36542;51.700;8.846;2023-02-01T03:53:11;4.30;99.90
50586;DHT22;36542;51.700;8.846;2023-02-01T03:55:40;4.30;99.90
50586;DHT22;36542;51.700;8.846;2023-02-01T03:58:15;4.30;99.90
50586;DHT22;36542;51.700;8.846;2023-02-01T04:00:55;4.40;99.90
50586;DHT22;36542;51.700;8.846;2023-02-01T04:03:21;4.40;99.90
50586;DHT22;36542;51.700;8.846;2023-02-01T04:05:50;4.40;99.90
50586;DHT22;36542;51.700;8.846;2023-02-01T04:08:16;4.40;99.90
50586;DHT22;36542;51.700;8.846;2023-02-01T04:10:42;4.40;99.90
50586;DHT22;36542;51.700;8.846;2023-02-01T04:13:07;4.40;99.90
50586;DHT22;36542;51.700;8.846;2023-02-01T04:15:33;4.40;99.90
50586;DHT22;36542;51.700;8.846;2023-02-01T04:18:00;4.40;99.90
50586;DHT22;36542;51.700;8.846;2023-02-01T04:20:25;4.40;99.90
50586;DHT22;36542;51.700;8.846;2023-02-01T04:22:51;4.40;99.90
50586;DHT22;36542;51.700;8.846;2023-02-01T04:25:16;4.40;99.90
50586;DHT22;36542;51.700;8.846;2023-02-01T04:27:42;4.40;99.90
50586;DHT22;36542;51.700;8.846;2023-02-01T04:30:08;4.50;99.90
50586;DHT22;36542;51.700;8.846;2023-02-01T04:32:38;4.40;99.90
50586;DHT22;36542;51.700;8.846;2023-02-01T04:35:03;4.40;99.90
50586;DHT22;36542;51.700;8.846;2023-02-01T04:37:29;4.40;99.90
50586;DHT22;36542;51.700;8.846;2023-02-01T04:39:55;4.40;99.90
50586;DHT22;36542;51.700;8.846;2023-02-01T04:42:20;4.40;99.90
50586;DHT22;36542;51.700;8.846;2023-02-01T04:44:46;4.40;99.90
50586;DHT22;36542;51.700;8.846;2023-02-01T04:47:11;4.40;99.90
50586;DHT22;36542;51.700;8.846;2023-02-01T04:49:37;4.40;99.90
50586;DHT22;36542;51.700;8.846;2023-02-01T04:52:02;4.40;99.90
50586;DHT22;36542;51.700;8.846;2023-02-01T04:54:28;4.40;99.90
50586;DHT22;36542;51.700;8.846;2023-02-01T04:56:53;4.40;99.90
50586;DHT22;36542;51.700;8.846;2023-02-01T04:59:19;4.40;99.90
50586;DHT22;36542;51.700;8.846;2023-02-01T05:01:44;4.40;99.90
50586;DHT22;36542;51.700;8.846;2023-02-01T05:04:10;4.30;99.90
50586;DHT22;36542;51.700;8.846;2023-02-01T05:06:35;4.30;99.90
50586;DHT22;36542;51.700;8.846;2023-02-01T05:09:01;4.30;99.90
50586;DHT22;36542;51.700;8.846;2023-02-01T05:11:26;4.30;99.90
50586;DHT22;36542;51.700;8.846;2023-02-01T05:14:10;4.30;99.90
50586;DHT22;36542;51.700;8.846;2023-02-01T05:16:36;4.30;99.90
50586;DHT22;36542;51.700;8.846;2023-02-01T05:19:01;4.30;99.90
50586;DHT22;36542;51.700;8.846;2023-02-01T05:21:27;4.30;99.90
50586;DHT22;36542;51.700;8.846;2023-02-01T05:23:52;4.30;99.90
50586;DHT22;36542;51.700;8.846;2023-02-01T05:26:42;4.30;99.90
50586;DHT22;36542;51.700;8.846;2023-02-01T05:29:09;4.30;99.90
50586;DHT22;36542;51.700;8.846;2023-02-01T05:31:36;4.30;99.90
50586;DHT22;36542;51.700;8.846;2023-02-01T05:34:01;4.30;99.90
50586;DHT22;36542;51.700;8.846;2023-02-01T05:36:27;4.30;99.90
50586;DHT22;36542;51.700;8.846;2023-02-01T05:38:53;4.30;99.90
50586;DHT22;36542;51.700;8.846;2023-02-01T05:41:18;4.30;99.90
50586;DHT22;36542;51.700;8.846;2023-02-01T05:43:44;4.20;99.90
50586;DHT22;36542;51.700;8.846;2023-02-01T05:46:09;4.20;99.90
50586;DHT22;36542;51.700;8.846;2023-02-01T05:48:42;4.30;99.90
50586;DHT22;36542;51.700;8.846;2023-02-01T05:51:08;4.20;99.90
50586;DHT22;36542;51.700;8.846;2023-02-01T05:53:34;4.20;99.90
50586;DHT22;36542;51.700;8.846;2023-02-01T05:56:00;4.20;99.90
50586;DHT22;36542;51.700;8.846;2023-02-01T05:58:25;4.20;99.90
50586;DHT22;36542;51.700;8.846;2023-02-01T06:00:51;4.20;99.90
50586;DHT22;36542;51.700;8.846;2023-02-01T06:03:17;4.20;99.90
50586;DHT22;36542;51.700;8.846;2023-02-01T06:05:46;4.20;99.90
50586;DHT22;36542;51.700;8.846;2023-02-01T06:08:13;4.20;99.90
50586;DHT22;36542;51.700;8.846;2023-02-01T06:10:38;4.20;99.90
50586;DHT22;36542;51.700;8.846;2023-02-01T06:13:04;4.20;99.90
50586;DHT22;36542;51.700;8.846;2023-02-01T06:15:30;4.20;99.90
50586;DHT22;36542;51.700;8.846;2023-02-01T06:17:56;4.20;99.90
50586;DHT22;36542;51.700;8.846;2023-02-01T06:20:22;4.30;99.90
50586;DHT22;36542;51.700;8.846;2023-02-01T06:22:47;4.30;99.90
50586;DHT22;36542;51.700;8.846;2023-02-01T06:25:13;4.40;99.90
50586;DHT22;36542;51.700;8.846;2023-02-01T06:27:39;4.30;99.90
50586;DHT22;36542;51.700;8.846;2023-02-01T06:30:05;4.40;99.90
50586;DHT22;36542;51.700;8.846;2023-02-01T06:32:32;4.40;99.90
50586;DHT22;36542;51.700;8.846;2023-02-01T06:34:57;4.40;99.90
50586;DHT22;36542;51.700;8.846;2023-02-01T06:37:24;4.30;99.90
50586;DHT22;36542;51.700;8.846;2023-02-01T06:39:50;4.40;99.90
50586;DHT22;36542;51.700;8.846;2023-02-01T06:42:16;4.40;99.90
50586;DHT22;36542;51.700;8.846;2023-02-01T06:44:41;4.40;99.90
50586;DHT22;36542;51.700;8.846;2023-02-01T06:47:07;4.50;99.90
50586;DHT22;36542;51.700;8.846;2023-02-01T06:49:32;4.40;99.90
50586;DHT22;36542;51.700;8.846;2023-02-01T06:51:58;4.50;99.90
50586;DHT22;36542;51.700;8.846;2023-02-01T06:54:28;4.50;99.90
50586;DHT22;36542;51.700;8.846;2023-02-01T06:56:54;4.50;99.90
50586;DHT22;36542;51.700;8.846;2023-02-01T06:59:20;4.50;99.90
50586;DHT22;36542;51.700;8.846;2023-02-01T07:01:46;4.50;99.90
50586;DHT22;36542;51.700;8.846;2023-02-01T07:04:12;4.50;99.90
50586;DHT22;36542;51.700;8.846;2023-02-01T07:06:38;4.50;99.90
50586;DHT22;36542;51.700;8.846;2023-02-01T07:09:04;4.50;99.90
50586;DHT22;36542;51.700;8.846;2023-02-01T07:11:29;4.50;99.90
50586;DHT22;36542;51.700;8.846;2023-02-01T07:13:55;4.50;99.90
50586;DHT22;36542;51.700;8.846;2023-02-01T07:16:21;4.50;99.90
50586;DHT22;36542;51.700;8.846;2023-02-01T07:18:47;4.50;99.90
50586;DHT22;36542;51.700;8.846;2023-02-01T07:21:13;4.50;99.90
50586;DHT22;36542;51.700;8.846;2023-02-01T07:23:38;4.50;99.90
50586;DHT22;36542;51.700;8.846;2023-02-01T07:26:06;4.50;99.90
50586;DHT22;36542;51.700;8.846;2023-02-01T07:28:34;4.50;99.90
50586;DHT22;36542;51.700;8.846;2023-02-01T07:31:08;4.50;99.90
50586;DHT22;36542;51.700;8.846;2023-02-01T07:33:34;4.50;99.90
50586;DHT22;36542;51.700;8.846;2023-02-01T07:36:02;4.50;99.90
50586;DHT22;36542;51.700;8.846;2023-02-01T07:38:28;4.50;99.90
50586;DHT22;36542;51.700;8.846;2023-02-01T07:41:01;4.50;99.90
50586;DHT22;36542;51.700;8.846;2023-02-01T07:43:28;4.50;99.90
50586;DHT22;36542;51.700;8.846;2023-02-01T07:45:54;4.50;99.90
50586;DHT22;36542;51.700;8.846;2023-02-01T07:48:21;4.50;99.90
50586;DHT22;36542;51.700;8.846;2023-02-01T07:50:47;4.50;99.90
50586;DHT22;36542;51.700;8.846;2023-02-01T07:53:12;4.50;99.90
50586;DHT22;36542;51.700;8.846;2023-02-01T07:55:39;4.50;99.90
50586;DHT22;36542;51.700;8.846;2023-02-01T07:58:04;4.50;99.90
50586;DHT22;36542;51.700;8.846;2023-02-01T08:00:30;4.60;99.90
50586;DHT22;36542;51.700;8.846;2023-02-01T08:03:14;4.60;99.90
50586;DHT22;36542;51.700;8.846;2023-02-01T08:05:39;4.60;99.90
50586;DHT22;36542;51.700;8.846;2023-02-01T08:08:05;4.60;99.90
50586;DHT22;36542;51.700;8.846;2023-02-01T08:10:31;4.60;99.90
50586;DHT22;36542;51.700;8.846;2023-02-01T08:13:00;4.60;99.90
50586;DHT22;36542;51.700;8.846;2023-02-01T08:15:27;4.60;99.90
50586;DHT22;36542;51.700;8.846;2023-02-01T08:17:53;4.60;99.90
50586;DHT22;36542;51.700;8.846;2023-02-01T08:20:20;4.60;99.90
50586;DHT22;36542;51.700;8.846;2023-02-01T08:22:48;4.60;99.90
50586;DHT22;36542;51.700;8.846;2023-02-01T08:25:13;4.60;99.90
50586;DHT22;36542;51.700;8.846;2023-02-01T08:27:39;4.60;99.90
50586;DHT22;36542;51.700;8.846;2023-02-01T08:30:06;4.60;99.90
50586;DHT22;36542;51.700;8.846;2023-02-01T08:32:33;4.60;99.90
50586;DHT22;36542;51.700;8.846;2023-02-01T08:34:59;4.50;99.90
50586;DHT22;36542;51.700;8.846;2023-02-01T08:37:24;4.60;99.90
50586;DHT22;36542;51.700;8.846;2023-02-01T08:39:50;4.60;99.90
50586;DHT22;36542;51.700;8.846;2023-02-01T08:42:16;4.60;99.90
50586;DHT22;36542;51.700;8.846;2023-02-01T08:45:02;4.60;99.90
50586;DHT22;36542;51.700;8.846;2023-02-01T08:47:28;4.60;99.90
50586;DHT22;36542;51.700;8.846;2023-02-01T08:49:54;4.60;99.90
50586;DHT22;36542;51.700;8.846;2023-02-01T08:52:19;4.60;99.90
50586;DHT22;36542;51.700;8.846;2023-02-01T08:54:45;4.60;99.90
50586;DHT22;36542;51.700;8.846;2023-02-01T08:57:10;4.60;99.90
50586;DHT22;36542;51.700;8.846;2023-02-01T08:59:36;4.60;99.90
50586;DHT22;36542;51.700;8.846;2023-02-01T09:02:01;4.70;99.90
50586;DHT22;36542;51.700;8.846;2023-02-01T09:04:27;4.60;99.90
50586;DHT22;36542;51.700;8.846;2023-02-01T09:06:53;4.70;99.90
50586;DHT22;36542;51.700;8.846;2023-02-01T09:09:24;4.70;99.90
50586;DHT22;36542;51.700;8.846;2023-02-01T09:11:49;4.70;99.90
50586;DHT22;36542;51.700;8.846;2023-02-01T09:14:18;4.70;99.90
50586;DHT22;36542;51.700;8.846;2023-02-01T09:16:43;4.70;99.90
50586;DHT22;36542;51.700;8.846;2023-02-01T09:19:09;4.70;99.90
50586;DHT22;36542;51.700;8.846;2023-02-01T09:21:35;4.70;99.90
50586;DHT22;36542;51.700;8.846;2023-02-01T09:24:00;4.80;99.90
50586;DHT22;36542;51.700;8.846;2023-02-01T09:26:26;4.80;99.90
50586;DHT22;36542;51.700;8.846;2023-02-01T09:28:52;4.80;99.90
50586;DHT22;36542;51.700;8.846;2023-02-01T09:31:18;4.80;99.90
50586;DHT22;36542;51.700;8.846;2023-02-01T09:33:43;4.90;99.90
50586;DHT22;36542;51.700;8.846;2023-02-01T09:36:09;4.90;99.90
50586;DHT22;36542;51.700;8.846;2023-02-01T09:38:35;4.90;99.90
50586;DHT22;36542;51.700;8.846;2023-02-01T09:41:00;4.80;99.90
50586;DHT22;36542;51.700;8.846;2023-02-01T09:43:48;4.80;99.90
50586;DHT22;36542;51.700;8.846;2023-02-01T09:46:28;4.80;99.90
50586;DHT22;36542;51.700;8.846;2023-02-01T09:48:57;4.80;99.90
50586;DHT22;36542;51.700;8.846;2023-02-01T09:51:29;4.80;99.90
50586;DHT22;36542;51.700;8.846;2023-02-01T09:54:03;4.80;99.90
50586;DHT22;36542;51.700;8.846;2023-02-01T09:56:48;4.80;99.90
50586;DHT22;36542;51.700;8.846;2023-02-01T10:00:06;4.90;99.90
50586;DHT22;36542;51.700;8.846;2023-02-01T10:02:39;4.90;99.90
50586;DHT22;36542;51.700;8.846;2023-02-01T10:05:05;4.90;99.90
50586;DHT22;36542;51.700;8.846;2023-02-01T10:07:51;4.80;99.90
50586;DHT22;36542;51.700;8.846;2023-02-01T10:10:41;4.80;99.90
50586;DHT22;36542;51.700;8.846;2023-02-01T10:13:27;4.80;99.90
50586;DHT22;36542;51.700;8.846;2023-02-01T10:19:29;4.80;99.90
50586;DHT22;36542;51.700;8.846;2023-02-01T10:21:53;4.80;99.90
50586;DHT22;36542;51.700;8.846;2023-02-01T10:24:22;4.80;99.90
50586;DHT22;36542;51.700;8.846;2023-02-01T10:29:29;4.80;99.90
50586;DHT22;36542;51.700;8.846;2023-02-01T10:31:56;4.80;99.90
50586;DHT22;36542;51.700;8.846;2023-02-01T10:34:27;4.80;99.90
50586;DHT22;36542;51.700;8.846;2023-02-01T10:36:56;4.80;99.90
50586;DHT22;36542;51.700;8.846;2023-02-01T10:39:24;4.90;99.90
50586;DHT22;36542;51.700;8.846;2023-02-01T10:41:50;4.90;99.90
50586;DHT22;36542;51.700;8.846;2023-02-01T10:44:26;5.00;99.90
50586;DHT22;36542;51.700;8.846;2023-02-01T10:46:53;5.00;99.90
50586;DHT22;36542;51.700;8.846;2023-02-01T10:49:41;5.10;99.90
50586;DHT22;36542;51.700;8.846;2023-02-01T10:52:39;5.10;99.90
50586;DHT22;36542;51.700;8.846;2023-02-01T10:55:36;5.20;99.90
50586;DHT22;36542;51.700;8.846;2023-02-01T10:58:04;5.10;99.90
50586;DHT22;36542;51.700;8.846;2023-02-01T11:00:43;5.20;99.90
50586;DHT22;36542;51.700;8.846;2023-02-01T11:03:36;5.10;99.90
50586;DHT22;36542;51.700;8.846;2023-02-01T11:06:17;5.10;99.90
50586;DHT22;36542;51.700;8.846;2023-02-01T11:08:52;5.10;99.90
50586;DHT22;36542;51.700;8.846;2023-02-01T11:11:19;5.10;99.90
50586;DHT22;36542;51.700;8.846;2023-02-01T11:14:02;5.10;99.90
50586;DHT22;36542;51.700;8.846;2023-02-01T11:16:38;5.10;99.90
50586;DHT22;36542;51.700;8.846;2023-02-01T11:19:04;5.10;99.90
50586;DHT22;36542;51.700;8.846;2023-02-01T11:21:31;5.10;99.90
50586;DHT22;36542;51.700;8.846;2023-02-01T11:24:04;5.10;99.90
50586;DHT22;36542;51.700;8.846;2023-02-01T11:26:30;5.10;99.90
50586;DHT22;36542;51.700;8.846;2023-02-01T11:29:09;5.10;99.90
50586;DHT22;36542;51.700;8.846;2023-02-01T11:31:36;5.10;99.90
50586;DHT22;36542;51.700;8.846;2023-02-01T11:34:09;5.10;99.90
50586;DHT22;36542;51.700;8.846;2023-02-01T11:36:36;5.10;99.90
50586;DHT22;36542;51.700;8.846;2023-02-01T11:44:20;5.20;99.90
50586;DHT22;36542;51.700;8.846;2023-02-01T11:46:47;5.20;99.90
50586;DHT22;36542;51.700;8.846;2023-02-01T11:49:23;5.20;99.90
50586;DHT22;36542;51.700;8.846;2023-02-01T11:52:13;5.20;99.90
50586;DHT22;36542;51.700;8.846;2023-02-01T11:57:51;5.20;99.90
50586;DHT22;36542;51.700;8.846;2023-02-01T12:06:42;5.30;99.90
50586;DHT22;36542;51.700;8.846;2023-02-01T12:12:08;5.20;99.90
50586;DHT22;36542;51.700;8.846;2023-02-01T12:15:42;5.20;99.90
50586;DHT22;36542;51.700;8.846;2023-02-01T12:18:16;5.20;99.90
50586;DHT22;36542;51.700;8.846;2023-02-01T12:21:01;5.10;99.90
50586;DHT22;36542;51.700;8.846;2023-02-01T12:32:25;5.00;99.90
50586;DHT22;36542;51.700;8.846;2023-02-01T12:35:23;4.90;99.90
50586;DHT22;36542;51.700;8.846;2023-02-01T12:38:20;4.90;99.90
50586;DHT22;36542;51.700;8.846;2023-02-01T12:41:10;4.90;99.90
50586;DHT22;36542;51.700;8.846;2023-02-01T12:43:54;4.80;99.90
50586;DHT22;36542;51.700;8.846;2023-02-01T12:46:26;4.80;99.90
50586;DHT22;36542;51.700;8.846;2023-02-01T12:49:00;4.80;99.90
50586;DHT22;36542;51.700;8.846;2023-02-01T12:51:33;4.70;99.90
50586;DHT22;36542;51.700;8.846;2023-02-01T12:54:22;4.70;99.90
50586;DHT22;36542;51.700;8.846;2023-02-01T12:56:58;4.70;99.90
50586;DHT22;36542;51.700;8.846;2023-02-01T12:59:34;4.60;99.90
50586;DHT22;36542;51.700;8.846;2023-02-01T13:02:19;4.60;99.90
50586;DHT22;36542;51.700;8.846;2023-02-01T13:04:55;4.60;99.90
50586;DHT22;36542;51.700;8.846;2023-02-01T13:08:29;4.60;99.90
50586;DHT22;36542;51.700;8.846;2023-02-01T13:10:46;4.60;99.90
50586;DHT22;36542;51.700;8.846;2023-02-01T13:13:33;4.60;99.90
50586;DHT22;36542;51.700;8.846;2023-02-01T13:16:26;4.50;99.90
50586;DHT22;36542;51.700;8.846;2023-02-01T13:19:00;4.50;99.90
50586;DHT22;36542;51.700;8.846;2023-02-01T13:21:33;4.40;99.90
50586;DHT22;36542;51.700;8.846;2023-02-01T13:23:59;4.40;99.90
50586;DHT22;36542;51.700;8.846;2023-02-01T13:26:25;4.40;99.90
50586;DHT22;36542;51.700;8.846;2023-02-01T13:28:56;4.30;99.90
50586;DHT22;36542;51.700;8.846;2023-02-01T13:37:44;4.40;99.90
50586;DHT22;36542;51.700;8.846;2023-02-01T13:40:30;4.40;99.90
50586;DHT22;36542;51.700;8.846;2023-02-01T13:43:23;4.40;99.90
50586;DHT22;36542;51.700;8.846;2023-02-01T13:45:54;4.40;99.90
50586;DHT22;36542;51.700;8.846;2023-02-01T13:48:35;4.40;99.90
50586;DHT22;36542;51.700;8.846;2023-02-01T13:51:04;4.40;99.90
50586;DHT22;36542;51.700;8.846;2023-02-01T13:53:32;4.40;99.90
50586;DHT22;36542;51.700;8.846;2023-02-01T13:56:06;4.40;99.90
50586;DHT22;36542;51.700;8.846;2023-02-01T13:58:39;4.40;99.90
50586;DHT22;36542;51.700;8.846;2023-02-01T14:04:00;4.50;99.90
50586;DHT22;36542;51.700;8.846;2023-02-01T14:09:13;4.50;99.90
50586;DHT22;36542;51.700;8.846;2023-02-01T14:11:48;4.50;99.90
50586;DHT22;36542;51.700;8.846;2023-02-01T14:16:43;4.50;99.90
50586;DHT22;36542;51.700;8.846;2023-02-01T14:21:49;4.60;99.90
50586;DHT22;36542;51.700;8.846;2023-02-01T14:24:33;4.60;99.90
50586;DHT22;36542;51.700;8.846;2023-02-01T14:27:01;4.60;99.90
50586;DHT22;36542;51.700;8.846;2023-02-01T14:29:36;4.60;99.90
50586;DHT22;36542;51.700;8.846;2023-02-01T14:32:17;4.70;99.90
50586;DHT22;36542;51.700;8.846;2023-02-01T14:37:35;4.80;99.90
50586;DHT22;36542;51.700;8.846;2023-02-01T14:47:54;4.90;99.90
50586;DHT22;36542;51.700;8.846;2023-02-01T14:50:27;5.00;99.90
50586;DHT22;36542;51.700;8.846;2023-02-01T14:53:10;5.00;99.90
50586;DHT22;36542;51.700;8.846;2023-02-01T14:55:53;5.00;99.90
50586;DHT22;36542;51.700;8.846;2023-02-01T14:58:44;5.10;99.90
50586;DHT22;36542;51.700;8.846;2023-02-01T15:01:33;5.20;99.90
50586;DHT22;36542;51.700;8.846;2023-02-01T15:04:12;5.30;99.90
50586;DHT22;36542;51.700;8.846;2023-02-01T15:12:16;5.10;99.90
50586;DHT22;36542;51.700;8.846;2023-02-01T15:15:13;5.00;99.90
50586;DHT22;36542;51.700;8.846;2023-02-01T15:17:39;5.00;99.90
50586;DHT22;36542;51.700;8.846;2023-02-01T15:20:20;4.90;99.90
50586;DHT22;36542;51.700;8.846;2023-02-01T15:22:58;4.90;99.90
50586;DHT22;36542;51.700;8.846;2023-02-01T15:25:27;4.90;99.90
50586;DHT22;36542;51.700;8.846;2023-02-01T15:27:54;4.90;99.90
50586;DHT22;36542;51.700;8.846;2023-02-01T15:30:29;4.90;99.90
50586;DHT22;36542;51.700;8.846;2023-02-01T15:33:16;4.50;99.90
50586;DHT22;36542;51.700;8.846;2023-02-01T15:35:44;2.90;99.90
50586;DHT22;36542;51.700;8.846;2023-02-01T15:41:15;2.10;99.90
50586;DHT22;36542;51.700;8.846;2023-02-01T15:46:22;2.10;99.90
50586;DHT22;36542;51.700;8.846;2023-02-01T15:48:52;2.20;99.90
50586;DHT22;36542;51.700;8.846;2023-02-01T15:51:21;2.30;99.90
50586;DHT22;36542;51.700;8.846;2023-02-01T15:54:06;2.30;99.90
50586;DHT22;36542;51.700;8.846;2023-02-01T15:56:37;2.30;99.90
50586;DHT22;36542;51.700;8.846;2023-02-01T15:59:06;2.50;99.90
50586;DHT22;36542;51.700;8.846;2023-02-01T16:01:38;2.60;99.90
50586;DHT22;36542;51.700;8.846;2023-02-01T16:04:21;2.60;99.90
50586;DHT22;36542;51.700;8.846;2023-02-01T16:09:20;2.70;99.90
50586;DHT22;36542;51.700;8.846;2023-02-01T16:12:00;2.90;99.90
50586;DHT22;36542;51.700;8.846;2023-02-01T16:14:26;2.90;99.90
50586;DHT22;36542;51.700;8.846;2023-02-01T16:16:53;3.00;99.90
50586;DHT22;36542;51.700;8.846;2023-02-01T16:19:19;3.20;99.90
50586;DHT22;36542;51.700;8.846;2023-02-01T16:21:45;3.30;99.90
50586;DHT22;36542;51.700;8.846;2023-02-01T16:24:11;3.40;99.90
50586;DHT22;36542;51.700;8.846;2023-02-01T16:26:36;3.70;99.90
50586;DHT22;36542;51.700;8.846;2023-02-01T16:29:03;3.90;99.90
50586;DHT22;36542;51.700;8.846;2023-02-01T16:31:34;4.00;99.90
50586;DHT22;36542;51.700;8.846;2023-02-01T16:34:00;4.00;99.90
50586;DHT22;36542;51.700;8.846;2023-02-01T16:36:26;4.00;99.90
50586;DHT22;36542;51.700;8.846;2023-02-01T16:38:53;3.90;99.90
50586;DHT22;36542;51.700;8.846;2023-02-01T16:41:21;3.80;99.90
50586;DHT22;36542;51.700;8.846;2023-02-01T16:43:50;3.80;99.90
50586;DHT22;36542;51.700;8.846;2023-02-01T16:46:18;3.80;99.90
50586;DHT22;36542;51.700;8.846;2023-02-01T16:48:53;3.80;99.90
50586;DHT22;36542;51.700;8.846;2023-02-01T16:51:19;3.80;99.90
50586;DHT22;36542;51.700;8.846;2023-02-01T16:53:45;3.80;99.90
50586;DHT22;36542;51.700;8.846;2023-02-01T16:56:16;3.80;99.90
50586;DHT22;36542;51.700;8.846;2023-02-01T16:58:42;3.80;99.90
50586;DHT22;36542;51.700;8.846;2023-02-01T17:01:12;3.80;99.90
50586;DHT22;36542;51.700;8.846;2023-02-01T17:03:39;3.80;99.90
50586;DHT22;36542;51.700;8.846;2023-02-01T17:06:06;3.70;99.90
50586;DHT22;36542;51.700;8.846;2023-02-01T17:08:35;3.70;99.90
50586;DHT22;36542;51.700;8.846;2023-02-01T17:11:01;3.90;99.90
50586;DHT22;36542;51.700;8.846;2023-02-01T17:13:27;3.90;99.90
50586;DHT22;36542;51.700;8.846;2023-02-01T17:15:56;3.90;99.90
50586;DHT22;36542;51.700;8.846;2023-02-01T17:18:23;4.00;99.90
50586;DHT22;36542;51.700;8.846;2023-02-01T17:20:50;4.00;99.90
50586;DHT22;36542;51.700;8.846;2023-02-01T17:23:18;4.00;99.90
50586;DHT22;36542;51.700;8.846;2023-02-01T17:25:43;3.90;99.90
50586;DHT22;36542;51.700;8.846;2023-02-01T17:28:09;3.80;99.90
50586;DHT22;36542;51.700;8.846;2023-02-01T17:30:35;3.80;99.90
50586;DHT22;36542;51.700;8.846;2023-02-01T17:33:02;3.70;99.90